sensor_id;sensor_type;location;lat;lon;timestamp;temperature;humidity
33927;DHT22;20485;50.992;5.550;2023-03-01T00:01:58;-2.90;99.90
33927;DHT22;20485;50.992;5.550;2023-03-01T00:04:24;-2.90;99.90
33927;DHT22;20485;50.992;5.550;2023-03-01T00:06:50;-3.00;99.90
33927;DHT22;20485;50.992;5.550;2023-03-01T00:09:16;-3.00;99.90
33927;DHT22;20485;50.992;5.550;2023-03-01T00:11:42;-3.10;99.90
33927;DHT22;20485;50.992;5.550;2023-03-01T00:14:07;-3.10;99.90
33927;DHT22;20485;50.992;5.550;2023-03-01T00:16:39;-3.20;99.90
33927;DHT22;20485;50.992;5.550;2023-03-01T00:19:06;-3.20;99.90
33927;DHT22;20485;50.992;5.550;2023-03-01T00:21:32;-3.20;99.90
33927;DHT22;20485;50.992;5.550;2023-03-01T00:23:59;-3.20;99.90
33927;DHT22;20485;50.992;5.550;2023-03-01T00:26:25;-3.20;99.90
33927;DHT22;20485;50.992;5.550;2023-03-01T00:28:51;-3.20;99.90
33927;DHT22;20485;50.992;5.550;2023-03-01T00:31:19;-3.20;99.90
33927;DHT22;20485;50.992;5.550;2023-03-01T00:33:46;-3.20;99.90
33927;DHT22;20485;50.992;5.550;2023-03-01T00:36:14;-3.20;99.90
33927;DHT22;20485;50.992;5.550;2023-03-01T00:38:44;-3.20;99.90
33927;DHT22;20485;50.992;5.550;2023-03-01T00:41:13;-3.20;99.90
33927;DHT22;20485;50.992;5.550;2023-03-01T00:43:39;-3.20;99.90
33927;DHT22;20485;50.992;5.550;2023-03-01T00:46:08;-3.20;99.90
33927;DHT22;20485;50.992;5.550;2023-03-01T00:48:34;-3.20;99.90
33927;DHT22;20485;50.992;5.550;2023-03-01T00:51:15;-3.20;99.90
33927;DHT22;20485;50.992;5.550;2023-03-01T00:53:41;-3.30;99.90
33927;DHT22;20485;50.992;5.550;2023-03-01T00:56:09;-1.00;99.90
33927;DHT22;20485;50.992;5.550;2023-03-01T00:58:35;-3.40;99.90
33927;DHT22;20485;50.992;5.550;2023-03-01T01:01:06;-3.40;99.90
33927;DHT22;20485;50.992;5.550;2023-03-01T01:03:32;-3.50;99.90
33927;DHT22;20485;50.992;5.550;2023-03-01T01:05:58;-0.10;99.90
33927;DHT22;20485;50.992;5.550;2023-03-01T01:08:23;-3.60;99.90
33927;DHT22;20485;50.992;5.550;2023-03-01T01:10:49;-3.50;99.90
33927;DHT22;20485;50.992;5.550;2023-03-01T01:13:15;-3.60;99.90
33927;DHT22;20485;50.992;5.550;2023-03-01T01:15:41;-3.60;99.90
33927;DHT22;20485;50.992;5.550;2023-03-01T01:18:07;-3.60;99.90
33927;DHT22;20485;50.992;5.550;2023-03-01T01:20:35;-3.70;99.90
33927;DHT22;20485;50.992;5.550;2023-03-01T01:23:01;-3.60;99.90
33927;DHT22;20485;50.992;5.550;2023-03-01T01:25:26;-3.50;99.90
33927;DHT22;20485;50.992;5.550;2023-03-01T01:27:52;-3.50;99.90
33927;DHT22;20485;50.992;5.550;2023-03-01T01:30:18;-3.60;99.90
33927;DHT22;20485;50.992;5.550;2023-03-01T01:32:44;-3.60;99.90
33927;DHT22;20485;50.992;5.550;2023-03-01T01:35:09;-3.70;99.90
33927;DHT22;20485;50.992;5.550;2023-03-01T01:37:35;-3.70;99.90
33927;DHT22;20485;50.992;5.550;2023-03-01T01:42:30;-3.80;99.90
33927;DHT22;20485;50.992;5.550;2023-03-01T01:45:25;-3.80;99.90
33927;DHT22;20485;50.992;5.550;2023-03-01T01:47:52;-3.80;99.90
33927;DHT22;20485;50.992;5.550;2023-03-01T01:50:19;-3.80;99.90
33927;DHT22;20485;50.992;5.550;2023-03-01T01:52:45;-3.80;99.90
33927;DHT22;20485;50.992;5.550;2023-03-01T01:55:15;-3.80;99.90
33927;DHT22;20485;50.992;5.550;2023-03-01T01:57:45;-3.90;99.90
33927;DHT22;20485;50.992;5.550;2023-03-01T02:00:16;-3.90;99.90
33927;DHT22;20485;50.992;5.550;2023-03-01T02:02:43;-4.00;99.90
33927;DHT22;20485;50.992;5.550;2023-03-01T02:08:02;-4.00;99.90
33927;DHT22;20485;50.992;5.550;2023-03-01T02:10:28;-4.00;99.90
33927;DHT22;20485;50.992;5.550;2023-03-01T02:12:55;-4.00;99.90
33927;DHT22;20485;50.992;5.550;2023-03-01T02:15:22;-4.00;99.90
33927;DHT22;20485;50.992;5.550;2023-03-01T02:17:49;-4.00;99.90
33927;DHT22;20485;50.992;5.550;2023-03-01T02:23:00;-4.10;99.90
33927;DHT22;20485;50.992;5.550;2023-03-01T02:28:30;-4.10;99.90
33927;DHT22;20485;50.992;5.550;2023-03-01T02:30:57;-4.10;99.90
33927;DHT22;20485;50.992;5.550;2023-03-01T02:33:41;-4.20;99.90
33927;DHT22;20485;50.992;5.550;2023-03-01T02:36:17;-4.20;99.90
33927;DHT22;20485;50.992;5.550;2023-03-01T02:38:44;-4.20;99.90
33927;DHT22;20485;50.992;5.550;2023-03-01T02:41:11;-4.20;99.90
33927;DHT22;20485;50.992;5.550;2023-03-01T02:43:38;-4.30;99.90
33927;DHT22;20485;50.992;5.550;2023-03-01T02:46:13;-4.40;99.90
33927;DHT22;20485;50.992;5.550;2023-03-01T02:48:50;-4.40;99.90
33927;DHT22;20485;50.992;5.550;2023-03-01T02:56:51;-4.40;99.90
33927;DHT22;20485;50.992;5.550;2023-03-01T02:59:21;-4.40;99.90
33927;DHT22;20485;50.992;5.550;2023-03-01T03:01:47;-4.40;99.90
33927;DHT22;20485;50.992;5.550;2023-03-01T03:04:16;-4.40;99.90
33927;DHT22;20485;50.992;5.550;2023-03-01T03:06:44;-4.40;99.90
33927;DHT22;20485;50.992;5.550;2023-03-01T03:09:10;-4.50;99.90
33927;DHT22;20485;50.992;5.550;2023-03-01T03:11:36;-4.40;99.90
33927;DHT22;20485;50.992;5.550;2023-03-01T03:14:03;-4.40;99.90
33927;DHT22;20485;50.992;5.550;2023-03-01T03:16:28;-4.40;99.90
33927;DHT22;20485;50.992;5.550;2023-03-01T03:18:55;-4.40;99.90
33927;DHT22;20485;50.992;5.550;2023-03-01T03:21:31;-4.40;99.90
33927;DHT22;20485;50.992;5.550;2023-03-01T03:23:57;-4.40;99.90
33927;DHT22;20485;50.992;5.550;2023-03-01T03:26:23;-4.50;99.90
33927;DHT22;20485;50.992;5.550;2023-03-01T03:28:49;-4.50;99.90
33927;DHT22;20485;50.992;5.550;2023-03-01T03:31:14;-4.50;99.90
33927;DHT22;20485;50.992;5.550;2023-03-01T03:33:40;-4.60;99.90
33927;DHT22;20485;50.992;5.550;2023-03-01T03:36:06;-4.50;99.90
33927;DHT22;20485;50.992;5.550;2023-03-01T03:38:32;-4.50;99.90
33927;DHT22;20485;50.992;5.550;2023-03-01T03:41:06;-4.50;99.90
33927;DHT22;20485;50.992;5.550;2023-03-01T03:43:34;-4.60;99.90
33927;DHT22;20485;50.992;5.550;2023-03-01T03:46:00;-4.60;99.90
33927;DHT22;20485;50.992;5.550;2023-03-01T03:48:27;-4.60;99.90
33927;DHT22;20485;50.992;5.550;2023-03-01T03:50:54;-2.30;99.90
33927;DHT22;20485;50.992;5.550;2023-03-01T03:53:22;-4.70;99.90
33927;DHT22;20485;50.992;5.550;2023-03-01T03:55:48;-4.70;99.90
33927;DHT22;20485;50.992;5.550;2023-03-01T03:58:15;-4.70;99.90
33927;DHT22;20485;50.992;5.550;2023-03-01T04:00:43;-4.70;99.90
33927;DHT22;20485;50.992;5.550;2023-03-01T04:03:11;-4.80;99.90
33927;DHT22;20485;50.992;5.550;2023-03-01T04:05:38;-4.80;99.90
33927;DHT22;20485;50.992;5.550;2023-03-01T04:08:05;-4.90;99.90
33927;DHT22;20485;50.992;5.550;2023-03-01T04:10:40;-4.80;99.90
33927;DHT22;20485;50.992;5.550;2023-03-01T04:13:08;-4.80;99.90
33927;DHT22;20485;50.992;5.550;2023-03-01T04:15:34;-4.80;99.90
33927;DHT22;20485;50.992;5.550;2023-03-01T04:18:00;-4.80;99.90
33927;DHT22;20485;50.992;5.550;2023-03-01T04:20:29;-4.90;99.90
33927;DHT22;20485;50.992;5.550;2023-03-01T04:23:21;-4.80;99.90
33927;DHT22;20485;50.992;5.550;2023-03-01T04:25:54;-4.90;99.90
33927;DHT22;20485;50.992;5.550;2023-03-01T04:28:28;-4.80;99.90
33927;DHT22;20485;50.992;5.550;2023-03-01T04:30:56;-4.80;99.90
33927;DHT22;20485;50.992;5.550;2023-03-01T04:33:22;-4.80;99.90
33927;DHT22;20485;50.992;5.550;2023-03-01T04:35:50;-4.90;99.90
33927;DHT22;20485;50.992;5.550;2023-03-01T04:38:17;-4.90;99.90
33927;DHT22;20485;50.992;5.550;2023-03-01T04:40:42;-4.90;99.90
33927;DHT22;20485;50.992;5.550;2023-03-01T04:43:10;-4.90;99.90
33927;DHT22;20485;50.992;5.550;2023-03-01T04:45:36;-4.90;99.90
33927;DHT22;20485;50.992;5.550;2023-03-01T04:48:02;-4.90;99.90
33927;DHT22;20485;50.992;5.550;2023-03-01T04:50:29;-5.00;99.90
33927;DHT22;20485;50.992;5.550;2023-03-01T04:52:55;-5.00;99.90
33927;DHT22;20485;50.992;5.550;2023-03-01T04:55:27;-4.90;99.90
33927;DHT22;20485;50.992;5.550;2023-03-01T04:57:54;-4.90;99.90
33927;DHT22;20485;50.992;5.550;2023-03-01T05:00:20;-4.90;99.90
33927;DHT22;20485;50.992;5.550;2023-03-01T05:02:57;-4.90;99.90
33927;DHT22;20485;50.992;5.550;2023-03-01T05:05:32;-4.90;99.90
33927;DHT22;20485;50.992;5.550;2023-03-01T05:08:00;-4.90;99.90
33927;DHT22;20485;50.992;5.550;2023-03-01T05:12:58;-5.00;99.90
33927;DHT22;20485;50.992;5.550;2023-03-01T05:15:29;-5.00;99.90
33927;DHT22;20485;50.992;5.550;2023-03-01T05:17:57;-5.00;99.90
33927;DHT22;20485;50.992;5.550;2023-03-01T05:20:29;-5.10;99.90
33927;DHT22;20485;50.992;5.550;2023-03-01T05:22:58;-5.10;99.90
33927;DHT22;20485;50.992;5.550;2023-03-01T05:25:25;-5.00;99.90
33927;DHT22;20485;50.992;5.550;2023-03-01T05:27:50;-5.00;99.90
33927;DHT22;20485;50.992;5.550;2023-03-01T05:30:18;-5.10;99.90
33927;DHT22;20485;50.992;5.550;2023-03-01T05:32:47;-5.00;99.90
33927;DHT22;20485;50.992;5.550;2023-03-01T05:35:14;-5.10;99.90
33927;DHT22;20485;50.992;5.550;2023-03-01T05:37:44;-5.10;99.90
33927;DHT22;20485;50.992;5.550;2023-03-01T05:40:12;-5.10;99.90
33927;DHT22;20485;50.992;5.550;2023-03-01T05:42:44;-5.10;99.90
33927;DHT22;20485;50.992;5.550;2023-03-01T05:45:14;-5.10;99.90
33927;DHT22;20485;50.992;5.550;2023-03-01T05:47:42;-5.10;99.90
33927;DHT22;20485;50.992;5.550;2023-03-01T05:50:13;-5.00;99.90
33927;DHT22;20485;50.992;5.550;2023-03-01T05:52:39;-5.00;99.90
33927;DHT22;20485;50.992;5.550;2023-03-01T05:55:05;-5.00;99.90
33927;DHT22;20485;50.992;5.550;2023-03-01T05:59:57;-5.00;99.90
33927;DHT22;20485;50.992;5.550;2023-03-01T06:02:23;-5.10;99.90
33927;DHT22;20485;50.992;5.550;2023-03-01T06:04:48;-5.10;99.90
33927;DHT22;20485;50.992;5.550;2023-03-01T06:07:14;-5.10;99.90
33927;DHT22;20485;50.992;5.550;2023-03-01T06:09:40;-5.10;99.90
33927;DHT22;20485;50.992;5.550;2023-03-01T06:12:05;-5.40;99.90
33927;DHT22;20485;50.992;5.550;2023-03-01T06:14:31;-5.20;99.90
33927;DHT22;20485;50.992;5.550;2023-03-01T06:16:57;-5.20;99.90
33927;DHT22;20485;50.992;5.550;2023-03-01T06:19:23;-5.20;99.90
33927;DHT22;20485;50.992;5.550;2023-03-01T06:21:49;-5.30;99.90
33927;DHT22;20485;50.992;5.550;2023-03-01T06:24:15;-5.30;99.90
33927;DHT22;20485;50.992;5.550;2023-03-01T06:26:40;-5.30;99.90
33927;DHT22;20485;50.992;5.550;2023-03-01T06:29:07;-5.30;99.90
33927;DHT22;20485;50.992;5.550;2023-03-01T06:31:34;-5.30;99.90
33927;DHT22;20485;50.992;5.550;2023-03-01T06:33:59;-5.20;99.90
33927;DHT22;20485;50.992;5.550;2023-03-01T06:36:25;-5.20;99.90
33927;DHT22;20485;50.992;5.550;2023-03-01T06:38:51;-5.20;99.90
33927;DHT22;20485;50.992;5.550;2023-03-01T06:41:16;-5.00;99.90
33927;DHT22;20485;50.992;5.550;2023-03-01T06:43:42;-5.00;99.90
33927;DHT22;20485;50.992;5.550;2023-03-01T06:46:08;-4.80;99.90
33927;DHT22;20485;50.992;5.550;2023-03-01T06:48:34;-4.80;99.90
33927;DHT22;20485;50.992;5.550;2023-03-01T06:51:00;-4.80;99.90
33927;DHT22;20485;50.992;5.550;2023-03-01T06:53:32;-4.80;99.90
33927;DHT22;20485;50.992;5.550;2023-03-01T06:55:58;-4.70;99.90
33927;DHT22;20485;50.992;5.550;2023-03-01T06:58:25;-4.70;99.90
33927;DHT22;20485;50.992;5.550;2023-03-01T07:00:51;-4.50;99.90
33927;DHT22;20485;50.992;5.550;2023-03-01T07:03:17;-4.60;99.90
33927;DHT22;20485;50.992;5.550;2023-03-01T07:05:43;-4.60;99.90
33927;DHT22;20485;50.992;5.550;2023-03-01T07:08:10;-4.60;99.90
33927;DHT22;20485;50.992;5.550;2023-03-01T07:10:36;-4.60;99.90
33927;DHT22;20485;50.992;5.550;2023-03-01T07:13:02;-2.20;99.90
33927;DHT22;20485;50.992;5.550;2023-03-01T07:15:28;-4.60;99.90
33927;DHT22;20485;50.992;5.550;2023-03-01T07:17:53;-4.60;99.90
33927;DHT22;20485;50.992;5.550;2023-03-01T07:20:20;-4.60;99.90
33927;DHT22;20485;50.992;5.550;2023-03-01T07:22:51;-4.60;99.90
33927;DHT22;20485;50.992;5.550;2023-03-01T07:25:17;-4.60;99.90
33927;DHT22;20485;50.992;5.550;2023-03-01T07:27:42;-4.50;99.90
33927;DHT22;20485;50.992;5.550;2023-03-01T07:30:09;-4.30;99.90
33927;DHT22;20485;50.992;5.550;2023-03-01T07:32:35;-4.30;99.90
33927;DHT22;20485;50.992;5.550;2023-03-01T07:35:00;-4.20;99.90
33927;DHT22;20485;50.992;5.550;2023-03-01T07:37:26;-4.10;99.90
33927;DHT22;20485;50.992;5.550;2023-03-01T07:39:52;-4.00;99.90
33927;DHT22;20485;50.992;5.550;2023-03-01T07:42:17;-4.00;99.90
33927;DHT22;20485;50.992;5.550;2023-03-01T07:44:43;-3.90;99.90
33927;DHT22;20485;50.992;5.550;2023-03-01T07:47:09;-3.90;99.90
33927;DHT22;20485;50.992;5.550;2023-03-01T07:49:34;-3.80;99.90
33927;DHT22;20485;50.992;5.550;2023-03-01T07:52:00;-3.80;99.90
33927;DHT22;20485;50.992;5.550;2023-03-01T07:54:26;-3.60;99.90
33927;DHT22;20485;50.992;5.550;2023-03-01T07:56:51;-3.40;99.90
33927;DHT22;20485;50.992;5.550;2023-03-01T07:59:17;-3.30;99.90
33927;DHT22;20485;50.992;5.550;2023-03-01T08:02:01;-3.20;99.90
33927;DHT22;20485;50.992;5.550;2023-03-01T08:04:27;-3.10;99.90
33927;DHT22;20485;50.992;5.550;2023-03-01T08:06:54;-2.10;99.90
33927;DHT22;20485;50.992;5.550;2023-03-01T08:09:20;-2.90;99.90
33927;DHT22;20485;50.992;5.550;2023-03-01T08:11:46;-2.70;99.90
33927;DHT22;20485;50.992;5.550;2023-03-01T08:14:13;-2.70;99.90
33927;DHT22;20485;50.992;5.550;2023-03-01T08:16:39;-2.60;99.90
33927;DHT22;20485;50.992;5.550;2023-03-01T08:19:10;-2.50;99.90
33927;DHT22;20485;50.992;5.550;2023-03-01T08:21:36;-2.50;99.90
33927;DHT22;20485;50.992;5.550;2023-03-01T08:24:03;-2.40;99.90
33927;DHT22;20485;50.992;5.550;2023-03-01T08:26:29;-2.40;99.90
33927;DHT22;20485;50.992;5.550;2023-03-01T08:28:55;-2.30;99.90
33927;DHT22;20485;50.992;5.550;2023-03-01T08:31:22;-2.10;99.90
33927;DHT22;20485;50.992;5.550;2023-03-01T08:33:49;-2.00;99.90
33927;DHT22;20485;50.992;5.550;2023-03-01T08:36:23;0.40;99.90
33927;DHT22;20485;50.992;5.550;2023-03-01T08:38:48;-1.80;99.90
33927;DHT22;20485;50.992;5.550;2023-03-01T08:41:14;-1.80;99.90
33927;DHT22;20485;50.992;5.550;2023-03-01T08:43:40;-1.60;99.90
33927;DHT22;20485;50.992;5.550;2023-03-01T08:46:06;-1.50;99.90
33927;DHT22;20485;50.992;5.550;2023-03-01T08:48:32;-1.50;99.90
33927;DHT22;20485;50.992;5.550;2023-03-01T08:51:07;-1.40;99.90
33927;DHT22;20485;50.992;5.550;2023-03-01T08:53:33;-1.40;99.90
33927;DHT22;20485;50.992;5.550;2023-03-01T08:56:03;-1.30;99.90
33927;DHT22;20485;50.992;5.550;2023-03-01T08:58:29;-1.20;99.90
33927;DHT22;20485;50.992;5.550;2023-03-01T09:00:55;-1.20;99.90
33927;DHT22;20485;50.992;5.550;2023-03-01T09:03:22;-1.00;99.90
33927;DHT22;20485;50.992;5.550;2023-03-01T09:05:49;-1.00;99.90
33927;DHT22;20485;50.992;5.550;2023-03-01T09:08:16;-0.90;99.90
33927;DHT22;20485;50.992;5.550;2023-03-01T09:10:42;-0.70;99.90
33927;DHT22;20485;50.992;5.550;2023-03-01T09:13:07;-0.70;99.90
33927;DHT22;20485;50.992;5.550;2023-03-01T09:15:33;-0.50;99.90
33927;DHT22;20485;50.992;5.550;2023-03-01T09:17:59;-0.50;99.90
33927;DHT22;20485;50.992;5.550;2023-03-01T09:20:25;-0.50;99.90
33927;DHT22;20485;50.992;5.550;2023-03-01T09:22:51;-0.40;99.90
33927;DHT22;20485;50.992;5.550;2023-03-01T09:25:16;-0.30;99.90
33927;DHT22;20485;50.992;5.550;2023-03-01T09:27:42;-0.10;99.90
33927;DHT22;20485;50.992;5.550;2023-03-01T09:30:08;-0.10;99.90
33927;DHT22;20485;50.992;5.550;2023-03-01T09:32:34;-0.10;99.90
33927;DHT22;20485;50.992;5.550;2023-03-01T09:35:00;0.10;99.90
33927;DHT22;20485;50.992;5.550;2023-03-01T09:37:35;0.20;99.90
33927;DHT22;20485;50.992;5.550;2023-03-01T09:40:04;0.20;99.90
33927;DHT22;20485;50.992;5.550;2023-03-01T09:42:32;0.40;99.90
33927;DHT22;20485;50.992;5.550;2023-03-01T09:45:10;0.40;99.90
33927;DHT22;20485;50.992;5.550;2023-03-01T09:47:36;0.40;99.90
33927;DHT22;20485;50.992;5.550;2023-03-01T09:53:07;0.60;99.90
33927;DHT22;20485;50.992;5.550;2023-03-01T10:00:50;0.90;99.90
33927;DHT22;20485;50.992;5.550;2023-03-01T10:03:31;2.30;99.90
33927;DHT22;20485;50.992;5.550;2023-03-01T10:06:15;0.90;99.90
33927;DHT22;20485;50.992;5.550;2023-03-01T10:11:24;1.00;99.90
33927;DHT22;20485;50.992;5.550;2023-03-01T10:13:56;1.10;99.90
33927;DHT22;20485;50.992;5.550;2023-03-01T10:16:52;1.20;99.90
33927;DHT22;20485;50.992;5.550;2023-03-01T10:19:30;1.30;99.90
33927;DHT22;20485;50.992;5.550;2023-03-01T10:22:03;1.30;99.90
33927;DHT22;20485;50.992;5.550;2023-03-01T10:24:34;1.40;99.90
33927;DHT22;20485;50.992;5.550;2023-03-01T10:27:13;1.50;99.90
33927;DHT22;20485;50.992;5.550;2023-03-01T10:29:49;1.50;99.90
33927;DHT22;20485;50.992;5.550;2023-03-01T10:32:17;1.60;99.90
33927;DHT22;20485;50.992;5.550;2023-03-01T10:34:43;1.60;99.90
33927;DHT22;20485;50.992;5.550;2023-03-01T10:37:17;2.80;99.90
33927;DHT22;20485;50.992;5.550;2023-03-01T10:40:00;1.80;99.90
33927;DHT22;20485;50.992;5.550;2023-03-01T10:42:35;1.80;99.90
33927;DHT22;20485;50.992;5.550;2023-03-01T10:48:10;2.00;99.90
33927;DHT22;20485;50.992;5.550;2023-03-01T10:50:38;2.10;99.90
33927;DHT22;20485;50.992;5.550;2023-03-01T10:53:18;2.20;99.90
33927;DHT22;20485;50.992;5.550;2023-03-01T10:55:45;2.10;99.90
33927;DHT22;20485;50.992;5.550;2023-03-01T10:58:18;2.10;99.90
33927;DHT22;20485;50.992;5.550;2023-03-01T11:03:16;2.50;99.90
33927;DHT22;20485;50.992;5.550;2023-03-01T11:08:34;2.30;99.90
33927;DHT22;20485;50.992;5.550;2023-03-01T11:13:55;2.60;99.90
33927;DHT22;20485;50.992;5.550;2023-03-01T11:16:34;2.70;99.90
33927;DHT22;20485;50.992;5.550;2023-03-01T11:19:13;2.70;99.90
33927;DHT22;20485;50.992;5.550;2023-03-01T11:21:55;2.80;99.90
33927;DHT22;20485;50.992;5.550;2023-03-01T11:29:55;2.90;99.90
33927;DHT22;20485;50.992;5.550;2023-03-01T11:32:25;3.00;99.90
33927;DHT22;20485;50.992;5.550;2023-03-01T11:38:04;3.00;99.90
33927;DHT22;20485;50.992;5.550;2023-03-01T11:40:44;3.30;99.90
33927;DHT22;20485;50.992;5.550;2023-03-01T11:43:19;3.30;99.90
33927;DHT22;20485;50.992;5.550;2023-03-01T11:46:27;3.30;99.90
33927;DHT22;20485;50.992;5.550;2023-03-01T12:03:26;3.50;99.90
33927;DHT22;20485;50.992;5.550;2023-03-01T12:19:44;4.20;99.90
33927;DHT22;20485;50.992;5.550;2023-03-01T12:39:47;4.60;99.90
33927;DHT22;20485;50.992;5.550;2023-03-01T12:50:52;4.60;99.90
33927;DHT22;20485;50.992;5.550;2023-03-01T12:53:27;4.60;99.90
33927;DHT22;20485;50.992;5.550;2023-03-01T12:55:57;4.60;99.90
33927;DHT22;20485;50.992;5.550;2023-03-01T12:58:39;4.50;99.90
33927;DHT22;20485;50.992;5.550;2023-03-01T13:04:18;4.70;99.90
33927;DHT22;20485;50.992;5.550;2023-03-01T13:07:19;4.90;99.90
33927;DHT22;20485;50.992;5.550;2023-03-01T13:10:00;5.00;99.90
33927;DHT22;20485;50.992;5.550;2023-03-01T13:17:52;4.90;99.90
33927;DHT22;20485;50.992;5.550;2023-03-01T13:20:32;5.00;99.90
33927;DHT22;20485;50.992;5.550;2023-03-01T13:26:05;4.90;99.90
33927;DHT22;20485;50.992;5.550;2023-03-01T13:30:58;5.00;99.90
33927;DHT22;20485;50.992;5.550;2023-03-01T13:35:59;5.10;99.90
33927;DHT22;20485;50.992;5.550;2023-03-01T13:38:45;5.20;99.90
33927;DHT22;20485;50.992;5.550;2023-03-01T13:41:14;5.10;99.90
33927;DHT22;20485;50.992;5.550;2023-03-01T13:43:43;5.10;99.90
33927;DHT22;20485;50.992;5.550;2023-03-01T13:46:16;5.20;99.90
33927;DHT22;20485;50.992;5.550;2023-03-01T13:48:45;5.30;99.90
33927;DHT22;20485;50.992;5.550;2023-03-01T13:51:23;5.30;99.90
33927;DHT22;20485;50.992;5.550;2023-03-01T13:53:50;5.30;99.90
33927;DHT22;20485;50.992;5.550;2023-03-01T13:56:26;5.20;99.90
33927;DHT22;20485;50.992;5.550;2023-03-01T13:59:01;5.20;99.90
33927;DHT22;20485;50.992;5.550;2023-03-01T14:01:44;5.20;99.90
33927;DHT22;20485;50.992;5.550;2023-03-01T14:04:31;5.20;99.90
33927;DHT22;20485;50.992;5.550;2023-03-01T14:07:12;5.20;99.90
33927;DHT22;20485;50.992;5.550;2023-03-01T14:09:41;5.30;99.90
33927;DHT22;20485;50.992;5.550;2023-03-01T14:12:22;5.30;99.90
33927;DHT22;20485;50.992;5.550;2023-03-01T14:20:32;5.40;99.90
33927;DHT22;20485;50.992;5.550;2023-03-01T14:23:02;5.40;99.90
33927;DHT22;20485;50.992;5.550;2023-03-01T14:25:35;5.50;99.90
33927;DHT22;20485;50.992;5.550;2023-03-01T14:30:48;5.40;99.90
33927;DHT22;20485;50.992;5.550;2023-03-01T14:33:27;5.40;99.90
33927;DHT22;20485;50.992;5.550;2023-03-01T14:36:00;5.30;99.90
33927;DHT22;20485;50.992;5.550;2023-03-01T14:38:41;5.40;99.90
33927;DHT22;20485;50.992;5.550;2023-03-01T14:41:17;5.30;99.90
33927;DHT22;20485;50.992;5.550;2023-03-01T14:43:50;5.30;99.90
33927;DHT22;20485;50.992;5.550;2023-03-01T14:46:37;5.40;99.90
33927;DHT22;20485;50.992;5.550;2023-03-01T14:51:39;5.50;99.90
33927;DHT22;20485;50.992;5.550;2023-03-01T14:54:41;5.50;99.90
33927;DHT22;20485;50.992;5.550;2023-03-01T14:59:42;5.60;99.90
33927;DHT22;20485;50.992;5.550;2023-03-01T15:02:14;5.50;99.90
33927;DHT22;20485;50.992;5.550;2023-03-01T15:04:45;5.50;99.90
33927;DHT22;20485;50.992;5.550;2023-03-01T15:07:13;5.50;99.90
33927;DHT22;20485;50.992;5.550;2023-03-01T15:09:40;5.50;99.90
33927;DHT22;20485;50.992;5.550;2023-03-01T15:12:35;5.60;99.90
33927;DHT22;20485;50.992;5.550;2023-03-01T15:15:22;5.70;99.90
33927;DHT22;20485;50.992;5.550;2023-03-01T15:17:56;5.60;99.90
33927;DHT22;20485;50.992;5.550;2023-03-01T15:20:25;5.50;99.90
33927;DHT22;20485;50.992;5.550;2023-03-01T15:22:54;5.50;99.90
33927;DHT22;20485;50.992;5.550;2023-03-01T15:25:25;5.50;99.90
33927;DHT22;20485;50.992;5.550;2023-03-01T15:27:53;5.40;99.90
33927;DHT22;20485;50.992;5.550;2023-03-01T15:30:29;5.40;99.90
33927;DHT22;20485;50.992;5.550;2023-03-01T15:35:54;5.50;99.90
33927;DHT22;20485;50.992;5.550;2023-03-01T15:38:52;5.50;99.90
33927;DHT22;20485;50.992;5.550;2023-03-01T15:41:31;5.40;99.90
33927;DHT22;20485;50.992;5.550;2023-03-01T15:43:59;5.50;99.90
33927;DHT22;20485;50.992;5.550;2023-03-01T15:46:26;5.50;99.90
33927;DHT22;20485;50.992;5.550;2023-03-01T15:48:59;5.60;99.90
33927;DHT22;20485;50.992;5.550;2023-03-01T15:51:36;5.60;99.90
33927;DHT22;20485;50.992;5.550;2023-03-01T15:54:14;5.50;99.90
33927;DHT22;20485;50.992;5.550;2023-03-01T15:56:42;5.40;99.90
33927;DHT22;20485;50.992;5.550;2023-03-01T15:59:10;5.30;99.90
33927;DHT22;20485;50.992;5.550;2023-03-01T16:01:44;5.30;99.90
33927;DHT22;20485;50.992;5.550;2023-03-01T16:04:14;5.30;99.90
33927;DHT22;20485;50.992;5.550;2023-03-01T16:06:46;5.40;99.90
33927;DHT22;20485;50.992;5.550;2023-03-01T16:09:19;5.40;99.90
33927;DHT22;20485;50.992;5.550;2023-03-01T16:11:44;5.40;99.90
33927;DHT22;20485;50.992;5.550;2023-03-01T16:14:10;5.40;99.90
33927;DHT22;20485;50.992;5.550;2023-03-01T16:16:36;5.40;99.90
33927;DHT22;20485;50.992;5.550;2023-03-01T16:19:01;5.30;99.90
33927;DHT22;20485;50.992;5.550;2023-03-01T16:21:27;5.30;99.90
33927;DHT22;20485;50.992;5.550;2023-03-01T16:23:53;6.50;99.90
33927;DHT22;20485;50.992;5.550;2023-03-01T16:26:19;5.20;99.90
33927;DHT22;20485;50.992;5.550;2023-03-01T16:28:45;5.20;99.90
33927;DHT22;20485;50.992;5.550;2023-03-01T16:31:11;5.10;99.90
33927;DHT22;20485;50.992;5.550;2023-03-01T16:33:39;5.10;99.90
33927;DHT22;20485;50.992;5.550;2023-03-01T16:36:11;5.00;99.90
33927;DHT22;20485;50.992;5.550;2023-03-01T16:38:38;6.10;99.90
33927;DHT22;20485;50.992;5.550;2023-03-01T16:41:05;5.10;99.90
33927;DHT22;20485;50.992;5.550;2023-03-01T16:43:33;5.00;99.90
33927;DHT22;20485;50.992;5.550;2023-03-01T16:46:13;5.00;99.90
33927;DHT22;20485;50.992;5.550;2023-03-01T16:48:40;4.90;99.90
33927;DHT22;20485;50.992;5.550;2023-03-01T16:51:06;4.80;99.90
33927;DHT22;20485;50.992;5.550;2023-03-01T16:53:35;4.70;99.90
33927;DHT22;20485;50.992;5.550;2023-03-01T16:56:04;4.70;99.90
33927;DHT22;20485;50.992;5.550;2023-03-01T16:58:30;4.60;99.90
33927;DHT22;20485;50.992;5.550;2023-03-01T17:00:56;4.60;99.90
33927;DHT22;20485;50.992;5.550;2023-03-01T17:03:23;4.60;99.90
33927;DHT22;20485;50.992;5.550;2023-03-01T17:05:50;4.50;99.90
33927;DHT22;20485;50.992;5.550;2023-03-01T17:08:16;4.50;99.90
33927;DHT22;20485;50.992;5.550;2023-03-01T17:10:42;4.40;99.90
33927;DHT22;20485;50.992;5.550;2023-03-01T17:13:09;4.20;99.90
33927;DHT22;20485;50.992;5.550;2023-03-01T17:15:37;4.20;99.90
33927;DHT22;20485;50.992;5.550;2023-03-01T17:18:03;4.10;99.90
33927;DHT22;20485;50.992;5.550;2023-03-01T17:20:29;4.00;99.90
33927;DHT22;20485;50.992;5.550;2023-03-01T17:22:54;3.90;99.90
33927;DHT22;20485;50.992;5.550;2023-03-01T17:25:20;3.90;99.90
33927;DHT22;20485;50.992;5.550;2023-03-01T17:27:46;3.90;99.90
33927;DHT22;20485;50.992;5.550;2023-03-01T17:30:13;3.80;99.90
33927;DHT22;20485;50.992;5.550;2023-03-01T17:32:39;3.80;99.90
33927;DHT22;20485;50.992;5.550;2023-03-01T17:35:05;3.70;99.90
33927;DHT22;20485;50.992;5.550;2023-03-01T17:37:32;3.50;99.90
33927;DHT22;20485;50.992;5.550;2023-03-01T17:39:58;3.40;99.90
33927;DHT22;20485;50.992;5.550;2023-03-01T17:42:24;3.30;99.90
33927;DHT22;20485;50.992;5.550;2023-03-01T17:44:49;3.20;99.90
33927;DHT22;20485;50.992;5.550;2023-03-01T17:47:15;3.00;99.90
33927;DHT22;20485;50.992;5.550;2023-03-01T17:49:41;3.00;99.90
33927;DHT22;20485;50.992;5.550;2023-03-01T17:52:06;2.90;99.90
33927;DHT22;20485;50.992;5.550;2023-03-01T17:54:32;2.80;99.90
33927;DHT22;20485;50.992;5.550;2023-03-01T17:56:58;4.20;99.90
33927;DHT22;20485;50.992;5.550;2023-03-01T17:59:24;2.60;99.90
33927;DHT22;20485;50.992;5.550;2023-03-01T18:01:56;2.50;99.90
33927;DHT22;20485;50.992;5.550;2023-03-01T18:04:22;2.50;99.90
33927;DHT22;20485;50.992;5.550;2023-03-01T18:06:47;2.40;99.90
33927;DHT22;20485;50.992;5.550;2023-03-01T18:09:13;2.40;99.90
33927;DHT22;20485;50.992;5.550;2023-03-01T18:11:39;2.30;99.90